createdAt,value
2022-09-28T00:00:26.250Z,0
2022-09-28T00:01:26.316Z,0
2022-09-28T00:02:26.322Z,0
2022-09-28T00:03:26.487Z,0
2022-09-28T00:04:26.564Z,0
2022-09-28T00:05:26.298Z,0
2022-09-28T00:06:26.323Z,0
2022-09-28T00:07:26.143Z,0
2022-09-28T00:08:29.157Z,0
2022-09-28T00:09:26.486Z,0
2022-09-28T00:10:26.304Z,0
2022-09-28T00:11:26.121Z,0
2022-09-28T00:12:26.187Z,0
2022-09-28T00:13:26.288Z,0
2022-09-28T00:14:26.492Z,0
2022-09-28T00:15:26.140Z,0
2022-09-28T00:16:26.247Z,0
2022-09-28T00:17:26.151Z,0
2022-09-28T00:18:26.563Z,0
2022-09-28T00:19:32.182Z,0
2022-09-28T00:20:26.309Z,0
2022-09-28T00:21:26.276Z,0
2022-09-28T00:22:26.241Z,0
2022-09-28T00:23:26.147Z,0
2022-09-28T00:24:27.800Z,0
2022-09-28T00:25:26.265Z,0
2022-09-28T00:26:26.232Z,0
2022-09-28T00:27:26.300Z,0
2022-09-28T00:28:26.270Z,0
2022-09-28T00:29:26.505Z,0
2022-09-28T00:30:29.259Z,0
2022-09-28T00:31:26.401Z,0
2022-09-28T00:32:26.137Z,0
2022-09-28T00:33:26.563Z,0
2022-09-28T00:34:26.498Z,0
2022-09-28T00:35:26.257Z,0
2022-09-28T00:36:26.258Z,0
2022-09-28T00:37:26.138Z,0
2022-09-28T00:38:26.127Z,0
2022-09-28T00:39:26.577Z,0
2022-09-28T00:40:26.359Z,0
2022-09-28T00:41:29.323Z,0
2022-09-28T00:42:26.255Z,0
2022-09-28T00:43:26.238Z,0
2022-09-28T00:44:26.539Z,0
2022-09-28T00:45:26.364Z,0
2022-09-28T00:46:26.241Z,0
2022-09-28T00:47:26.238Z,0
2022-09-28T00:48:26.560Z,0
2022-09-28T00:49:26.494Z,0
2022-09-28T00:50:26.325Z,0
2022-09-28T00:51:26.263Z,0
2022-09-28T00:52:29.256Z,0
2022-09-28T00:53:26.352Z,0
2022-09-28T00:54:26.489Z,0
2022-09-28T00:55:26.283Z,0
2022-09-28T00:56:26.126Z,0
2022-09-28T00:57:26.149Z,0
2022-09-28T00:58:26.122Z,0
2022-09-28T00:59:26.564Z,0
2022-09-28T01:00:26.282Z,0
2022-09-28T01:01:26.372Z,0
2022-09-28T01:02:26.329Z,0
2022-09-28T01:03:32.215Z,0
2022-09-28T01:04:29.858Z,0
2022-09-28T01:05:26.311Z,0
2022-09-28T01:06:26.189Z,0
2022-09-28T01:07:26.282Z,0
2022-09-28T01:08:26.333Z,0
2022-09-28T01:09:26.492Z,0
2022-09-28T01:10:26.198Z,0
2022-09-28T01:11:26.294Z,0
2022-09-28T01:12:26.322Z,0
2022-09-28T01:13:26.353Z,0
2022-09-28T01:14:32.223Z,0
2022-09-28T01:15:26.192Z,0
2022-09-28T01:16:26.209Z,0
2022-09-28T01:17:26.209Z,0
2022-09-28T01:18:26.572Z,0
2022-09-28T01:19:26.490Z,0
2022-09-28T01:20:26.127Z,0
2022-09-28T01:21:26.190Z,0
2022-09-28T01:22:26.121Z,0
2022-09-28T01:23:26.257Z,0
2022-09-28T01:24:26.493Z,0
2022-09-28T01:25:29.262Z,0
2022-09-28T01:26:26.244Z,0
2022-09-28T01:27:26.271Z,0
2022-09-28T01:28:26.288Z,0
2022-09-28T01:29:26.559Z,0
2022-09-28T01:30:26.226Z,0
2022-09-28T01:31:26.321Z,0
2022-09-28T01:32:26.147Z,0
2022-09-28T01:33:26.555Z,0
2022-09-28T01:34:26.491Z,0
2022-09-28T01:35:26.197Z,0
2022-09-28T01:36:29.339Z,0
2022-09-28T01:37:26.310Z,0
2022-09-28T01:38:26.143Z,0
2022-09-28T01:39:26.566Z,0
2022-09-28T01:40:26.311Z,0
2022-09-28T01:41:26.112Z,0
2022-09-28T01:42:26.133Z,0
2022-09-28T01:43:26.120Z,0
2022-09-28T01:44:26.563Z,0
2022-09-28T01:45:26.343Z,0
2022-09-28T01:46:26.219Z,0
2022-09-28T01:47:29.173Z,0
2022-09-28T01:48:26.488Z,0
2022-09-28T01:49:26.495Z,0
2022-09-28T01:50:26.230Z,0
2022-09-28T01:51:26.270Z,0
2022-09-28T01:52:26.316Z,0
2022-09-28T01:53:26.134Z,0
2022-09-28T01:54:26.565Z,0
2022-09-28T01:55:26.296Z,0
2022-09-28T01:56:26.247Z,0
2022-09-28T01:57:26.346Z,0
2022-09-28T01:58:29.271Z,0
2022-09-28T01:59:26.487Z,0
2022-09-28T02:00:26.465Z,0
2022-09-28T02:01:26.206Z,0
2022-09-28T02:02:26.240Z,0
2022-09-28T02:03:26.567Z,0
2022-09-28T02:04:26.261Z,0
2022-09-28T02:05:26.124Z,0
2022-09-28T02:06:26.138Z,0
2022-09-28T02:07:26.132Z,0
2022-09-28T02:08:26.124Z,0
2022-09-28T02:09:33.874Z,0
2022-09-28T02:10:26.287Z,0
2022-09-28T02:11:26.106Z,0
2022-09-28T02:12:26.154Z,0
2022-09-28T02:13:26.154Z,0
2022-09-28T02:14:26.551Z,0
2022-09-28T02:15:26.239Z,0
2022-09-28T02:16:26.208Z,0
2022-09-28T02:17:26.222Z,0
2022-09-28T02:18:26.497Z,0
2022-09-28T02:19:26.481Z,0
2022-09-28T02:20:29.274Z,0
2022-09-28T02:21:26.290Z,0
2022-09-28T02:22:26.689Z,0
2022-09-28T02:23:26.335Z,0
2022-09-28T02:24:26.489Z,0
2022-09-28T02:25:26.214Z,0
2022-09-28T02:26:26.139Z,0
2022-09-28T02:27:26.137Z,0
2022-09-28T02:28:26.144Z,0
2022-09-28T02:29:26.567Z,0
2022-09-28T02:30:26.339Z,0
2022-09-28T02:31:29.268Z,0
2022-09-28T02:32:26.322Z,0
2022-09-28T02:33:26.271Z,0
2022-09-28T02:34:26.492Z,0
2022-09-28T02:35:26.203Z,0
2022-09-28T02:36:26.139Z,0
2022-09-28T02:37:26.142Z,0
2022-09-28T02:38:26.138Z,0
2022-09-28T02:39:26.569Z,0
2022-09-28T02:40:26.287Z,0
2022-09-28T02:41:26.109Z,0
2022-09-28T02:42:29.151Z,0
2022-09-28T02:43:26.302Z,0
2022-09-28T02:44:26.562Z,0
2022-09-28T02:45:26.267Z,0
2022-09-28T02:46:26.211Z,0
2022-09-28T02:47:26.145Z,0
2022-09-28T02:48:42.668Z,0
2022-09-28T02:49:26.558Z,0
2022-09-28T02:50:26.349Z,0
2022-09-28T02:51:26.229Z,0
2022-09-28T02:52:26.189Z,0
2022-09-28T02:53:29.247Z,0
2022-09-28T02:54:26.487Z,0
2022-09-28T02:55:26.217Z,0
2022-09-28T02:56:26.128Z,0
2022-09-28T02:57:26.114Z,0
2022-09-28T02:58:26.144Z,0
2022-09-28T02:59:26.493Z,0
2022-09-28T03:00:26.248Z,0
2022-09-28T03:01:26.416Z,0
2022-09-28T03:02:26.412Z,0
2022-09-28T03:03:26.488Z,0
2022-09-28T03:04:30.683Z,0
2022-09-28T03:05:26.335Z,0
2022-09-28T03:06:26.152Z,0
2022-09-28T03:07:26.187Z,0
2022-09-28T03:08:26.231Z,0
2022-09-28T03:09:26.254Z,0
2022-09-28T03:10:26.215Z,0
2022-09-28T03:11:26.119Z,0
2022-09-28T03:12:26.259Z,0
2022-09-28T03:13:26.252Z,0
2022-09-28T03:14:26.562Z,0
2022-09-28T03:15:29.171Z,0
2022-09-28T03:16:26.446Z,0
2022-09-28T03:17:26.227Z,0
2022-09-28T03:18:26.568Z,0
2022-09-28T03:19:26.495Z,0
2022-09-28T03:20:26.221Z,0
2022-09-28T03:21:26.137Z,0
2022-09-28T03:22:26.128Z,0
2022-09-28T03:23:26.188Z,0
2022-09-28T03:24:26.565Z,0
2022-09-28T03:25:26.310Z,0
2022-09-28T03:26:29.306Z,0
2022-09-28T03:27:26.344Z,0
2022-09-28T03:28:26.351Z,0
2022-09-28T03:29:26.493Z,0
2022-09-28T03:30:26.191Z,0
2022-09-28T03:31:26.348Z,0
2022-09-28T03:32:26.267Z,0
2022-09-28T03:33:26.565Z,0
2022-09-28T03:34:26.323Z,0
2022-09-28T03:35:26.253Z,0
2022-09-28T03:36:26.348Z,0
2022-09-28T03:37:29.229Z,0
2022-09-28T03:38:26.239Z,0
2022-09-28T03:39:26.565Z,0
2022-09-28T03:40:26.289Z,0
2022-09-28T03:41:26.224Z,0
2022-09-28T03:42:26.211Z,0
2022-09-28T03:43:26.134Z,0
2022-09-28T03:44:26.565Z,0
2022-09-28T03:45:26.248Z,0
2022-09-28T03:46:26.256Z,0
2022-09-28T03:47:26.231Z,0
2022-09-28T03:48:33.005Z,0
2022-09-28T03:49:26.491Z,0
2022-09-28T03:50:26.337Z,0
2022-09-28T03:51:26.213Z,0
2022-09-28T03:52:26.257Z,0
2022-09-28T03:53:26.289Z,0
2022-09-28T03:54:26.494Z,0
2022-09-28T03:55:26.227Z,0
2022-09-28T03:56:26.146Z,0
2022-09-28T03:57:26.150Z,0
2022-09-28T03:58:26.237Z,0
2022-09-28T03:59:32.209Z,0
2022-09-28T04:00:26.199Z,0
2022-09-28T04:01:26.301Z,0
2022-09-28T04:02:26.231Z,0
2022-09-28T04:03:26.562Z,0
2022-09-28T04:04:26.487Z,0
2022-09-28T04:05:26.135Z,0
2022-09-28T04:06:26.192Z,0
2022-09-28T04:07:30.748Z,0
2022-09-28T04:08:26.127Z,0
2022-09-28T04:09:26.567Z,0
2022-09-28T04:10:29.261Z,0
2022-09-28T04:11:26.202Z,0
2022-09-28T04:12:26.133Z,0
2022-09-28T04:13:26.136Z,0
2022-09-28T04:14:26.241Z,0
2022-09-28T04:15:26.218Z,0
2022-09-28T04:16:26.246Z,0
2022-09-28T04:17:26.240Z,0
2022-09-28T04:18:26.570Z,0
2022-09-28T04:19:26.488Z,0
2022-09-28T04:20:26.241Z,0
2022-09-28T04:21:29.226Z,0
2022-09-28T04:22:26.294Z,0
2022-09-28T04:23:26.153Z,0
2022-09-28T04:24:26.568Z,0
2022-09-28T04:25:26.211Z,0
2022-09-28T04:26:26.135Z,0
2022-09-28T04:27:26.129Z,0
2022-09-28T04:28:26.188Z,0
2022-09-28T04:29:26.573Z,0
2022-09-28T04:30:26.342Z,0
2022-09-28T04:31:26.338Z,0
2022-09-28T04:32:29.243Z,0
2022-09-28T04:33:26.493Z,0
2022-09-28T04:34:26.565Z,0
2022-09-28T04:35:26.356Z,0
2022-09-28T04:36:26.267Z,0
2022-09-28T04:37:26.177Z,0
2022-09-28T04:38:41.786Z,0
2022-09-28T04:39:26.569Z,0
2022-09-28T04:40:26.319Z,0
2022-09-28T04:41:26.201Z,0
2022-09-28T04:42:26.124Z,0
2022-09-28T04:43:29.230Z,0
2022-09-28T04:44:26.507Z,0
2022-09-28T04:45:26.298Z,0
2022-09-28T04:46:26.115Z,0
2022-09-28T04:47:26.113Z,0
2022-09-28T04:48:26.246Z,0
2022-09-28T04:49:26.493Z,0
2022-09-28T04:50:26.131Z,0
2022-09-28T04:51:26.133Z,0
2022-09-28T04:52:26.140Z,0
2022-09-28T04:53:26.250Z,0
2022-09-28T04:54:32.126Z,0
2022-09-28T04:55:26.345Z,0
2022-09-28T04:56:26.241Z,0
2022-09-28T04:57:26.243Z,0
2022-09-28T04:58:26.245Z,0
2022-09-28T04:59:26.492Z,0
2022-09-28T05:00:26.115Z,0
2022-09-28T05:01:26.270Z,0
2022-09-28T05:02:26.294Z,0
2022-09-28T05:03:26.487Z,0
2022-09-28T05:04:26.498Z,0
2022-09-28T05:05:29.131Z,0
2022-09-28T05:06:26.357Z,0
2022-09-28T05:07:26.254Z,0
2022-09-28T05:08:26.243Z,0
2022-09-28T05:09:26.217Z,0
2022-09-28T05:10:26.556Z,0
2022-09-28T05:11:26.108Z,0
2022-09-28T05:12:26.139Z,0
2022-09-28T05:13:26.198Z,0
2022-09-28T05:14:26.566Z,0
2022-09-28T05:15:26.321Z,0
2022-09-28T05:16:29.343Z,0
2022-09-28T05:17:26.336Z,0
2022-09-28T05:18:26.488Z,0
2022-09-28T05:19:26.481Z,0
2022-09-28T05:20:26.337Z,0
2022-09-28T05:21:26.368Z,0
2022-09-28T05:22:26.133Z,0
2022-09-28T05:23:26.233Z,0
2022-09-28T05:24:26.494Z,0
2022-09-28T05:25:26.206Z,0
2022-09-28T05:26:26.224Z,0
2022-09-28T05:27:29.295Z,0
2022-09-28T05:28:26.229Z,0
2022-09-28T05:29:29.037Z,0
2022-09-28T05:30:26.121Z,0
2022-09-28T05:31:26.167Z,0
2022-09-28T05:32:26.211Z,0
2022-09-28T05:33:26.493Z,0
2022-09-28T05:34:26.561Z,0
2022-09-28T05:35:26.240Z,0
2022-09-28T05:36:26.145Z,0
2022-09-28T05:37:26.117Z,0
2022-09-28T05:38:29.158Z,0
2022-09-28T05:39:26.496Z,0
2022-09-28T05:40:26.390Z,0
2022-09-28T05:41:26.194Z,0
2022-09-28T05:42:26.243Z,0
2022-09-28T05:43:26.309Z,0
2022-09-28T05:44:26.487Z,0
2022-09-28T05:45:26.243Z,0
2022-09-28T05:46:26.241Z,0
2022-09-28T05:47:26.241Z,0
2022-09-28T05:48:26.566Z,0
2022-09-28T05:49:32.233Z,0
2022-09-28T05:50:26.580Z,0
2022-09-28T05:51:26.291Z,0
2022-09-28T05:52:26.263Z,0
2022-09-28T05:53:26.249Z,0
2022-09-28T05:54:26.494Z,0
2022-09-28T05:55:26.175Z,0
2022-09-28T05:56:26.132Z,0
2022-09-28T05:57:26.146Z,0
2022-09-28T05:58:26.244Z,0
2022-09-28T05:59:26.590Z,0
2022-09-28T06:00:29.250Z,0
2022-09-28T06:01:26.429Z,0
2022-09-28T06:02:26.253Z,0
2022-09-28T06:03:26.495Z,0
2022-09-28T06:04:26.494Z,0
2022-09-28T06:05:26.311Z,0
2022-09-28T06:06:26.220Z,0
2022-09-28T06:07:26.244Z,0
2022-09-28T06:08:26.189Z,0
2022-09-28T06:09:26.579Z,0
2022-09-28T06:10:26.253Z,0
2022-09-28T06:11:29.423Z,0
2022-09-28T06:12:26.228Z,0
2022-09-28T06:13:26.246Z,0
2022-09-28T06:14:26.488Z,0
2022-09-28T06:15:26.275Z,0
2022-09-28T06:16:26.197Z,0
2022-09-28T06:17:26.246Z,0
2022-09-28T06:18:26.568Z,0
2022-09-28T06:19:26.263Z,0
2022-09-28T06:20:26.150Z,0
2022-09-28T06:21:26.147Z,0
2022-09-28T06:22:29.175Z,0
2022-09-28T06:23:26.216Z,0
2022-09-28T06:24:26.554Z,0
2022-09-28T06:25:26.346Z,0
2022-09-28T06:26:26.334Z,0
2022-09-28T06:27:26.318Z,0
2022-09-28T06:28:26.164Z,0
2022-09-28T06:29:26.610Z,0
2022-09-28T06:30:26.254Z,0
2022-09-28T06:31:26.137Z,0
2022-09-28T06:32:26.145Z,0
2022-09-28T06:33:32.209Z,0
2022-09-28T06:34:26.492Z,0
2022-09-28T06:35:26.314Z,0
2022-09-28T06:36:26.339Z,0
2022-09-28T06:37:26.227Z,0
2022-09-28T06:38:26.269Z,0
2022-09-28T06:39:26.487Z,0
2022-09-28T06:40:26.328Z,0
2022-09-28T06:41:26.181Z,0
2022-09-28T06:42:26.156Z,0
2022-09-28T06:43:26.132Z,0
2022-09-28T06:44:32.260Z,0
2022-09-28T06:45:26.458Z,0
2022-09-28T06:46:26.371Z,0
2022-09-28T06:47:26.204Z,0
2022-09-28T06:48:26.571Z,0
2022-09-28T06:49:26.487Z,0
2022-09-28T06:50:26.219Z,0
2022-09-28T06:51:26.264Z,0
2022-09-28T06:52:26.225Z,0
2022-09-28T06:53:26.155Z,0
2022-09-28T06:54:26.567Z,0
2022-09-28T06:55:29.259Z,0
2022-09-28T06:56:29.429Z,0
2022-09-28T06:57:26.128Z,0
2022-09-28T06:58:26.254Z,0
2022-09-28T06:59:26.500Z,0
2022-09-28T07:00:26.218Z,0
2022-09-28T07:01:26.200Z,0
2022-09-28T07:02:26.179Z,0
2022-09-28T07:03:26.557Z,0
2022-09-28T07:04:26.487Z,0
2022-09-28T07:05:26.309Z,0
2022-09-28T07:06:29.148Z,0
2022-09-28T07:07:26.297Z,0
2022-09-28T07:08:26.262Z,0
2022-09-28T07:09:32.420Z,0
2022-09-28T07:10:26.376Z,0
2022-09-28T07:11:26.214Z,0
2022-09-28T07:12:26.245Z,90.595703125
2022-09-28T07:13:45.196Z,90.7919921875
2022-09-28T07:14:44.907Z,0
2022-09-28T07:15:26.212Z,0
2022-09-28T07:16:31.339Z,0
2022-09-28T07:17:29.494Z,90.484375
2022-09-28T07:18:26.507Z,89.828125
2022-09-28T07:19:26.486Z,90.5068359375
2022-09-28T07:20:26.290Z,0
2022-09-28T07:21:29.858Z,0
2022-09-28T07:22:39.824Z,90.2568359375
2022-09-28T07:23:26.278Z,90.306640625
2022-09-28T07:24:26.568Z,0
2022-09-28T07:25:26.241Z,0
2022-09-28T07:26:26.137Z,90.556640625
2022-09-28T07:27:28.936Z,90.3623046875
2022-09-28T07:28:29.166Z,0
2022-09-28T07:29:26.361Z,90.2998046875
2022-09-28T07:30:26.621Z,89.091796875
2022-09-28T07:31:26.605Z,89.50390625
2022-09-28T07:32:26.290Z,89.3203125
2022-09-28T07:33:26.229Z,88.59765625
2022-09-28T07:34:26.495Z,87.9638671875
2022-09-28T07:35:26.565Z,87.9814453125
2022-09-28T07:36:26.285Z,87.8173828125
2022-09-28T07:37:26.276Z,87.64453125
2022-09-28T07:38:26.273Z,87.359375
2022-09-28T07:39:29.174Z,86.548828125
2022-09-28T07:40:26.608Z,86.6962890625
2022-09-28T07:41:26.286Z,86.9912109375
2022-09-28T07:42:26.312Z,86.189453125
2022-09-28T07:43:26.145Z,83.7431640625
2022-09-28T07:44:26.259Z,80.91015625
2022-09-28T07:45:26.501Z,78.06640625
2022-09-28T07:46:26.213Z,75.6171875
2022-09-28T07:47:27.810Z,75.365234375
2022-09-28T07:48:26.134Z,74.8935546875
2022-09-28T07:49:26.568Z,74.7119140625
2022-09-28T07:50:29.164Z,74.1015625
2022-09-28T07:51:26.232Z,74.341796875
2022-09-28T07:52:26.142Z,74.833984375
2022-09-28T07:53:26.162Z,74.8837890625
2022-09-28T07:54:26.558Z,74.11328125
2022-09-28T07:55:26.333Z,73.78515625
2022-09-28T07:56:26.275Z,73.3017578125
2022-09-28T07:57:26.272Z,73.3603515625
2022-09-28T07:58:26.219Z,72.9443359375
2022-09-28T07:59:26.590Z,72.1591796875
2022-09-28T08:00:27.593Z,71.5322265625
2022-09-28T08:01:29.262Z,71.310546875
2022-09-28T08:02:26.395Z,71.0625
2022-09-28T08:03:26.221Z,71.111328125
2022-09-28T08:04:26.573Z,69.447265625
2022-09-28T08:05:26.342Z,69.40234375
2022-09-28T08:06:26.308Z,69.4951171875
2022-09-28T08:07:26.258Z,69.8994140625
2022-09-28T08:08:26.203Z,68.8798828125
2022-09-28T08:09:26.497Z,67.9404296875
2022-09-28T08:10:26.216Z,68.1259765625
2022-09-28T08:11:26.282Z,67.5439453125
2022-09-28T08:12:29.254Z,66.9296875
2022-09-28T08:13:27.317Z,67.443359375
2022-09-28T08:14:26.157Z,67.8515625
2022-09-28T08:15:26.196Z,68.599609375
2022-09-28T08:16:26.198Z,68.9208984375
2022-09-28T08:17:26.205Z,68.6005859375
2022-09-28T08:18:26.206Z,68.091796875
2022-09-28T08:19:26.489Z,68.2744140625
2022-09-28T08:20:26.301Z,67.4931640625
2022-09-28T08:21:26.263Z,68.029296875
2022-09-28T08:22:26.286Z,68.0224609375
2022-09-28T08:23:29.223Z,67.341796875
2022-09-28T08:24:26.602Z,66.8544921875
2022-09-28T08:25:26.319Z,65.513671875
2022-09-28T08:26:26.347Z,63.443359375
2022-09-28T08:27:26.343Z,62.6875
2022-09-28T08:28:26.243Z,62.126953125
2022-09-28T08:29:26.498Z,59.8408203125
2022-09-28T08:30:26.147Z,59.51953125
2022-09-28T08:31:26.140Z,57.6337890625
2022-09-28T08:32:26.141Z,57.4921875
2022-09-28T08:33:26.262Z,56.5849609375
2022-09-28T08:34:32.202Z,55.27734375
2022-09-28T08:35:26.215Z,54.3095703125
2022-09-28T08:36:26.132Z,55.0185546875
2022-09-28T08:37:26.136Z,55.4287109375
2022-09-28T08:38:26.180Z,55.01171875
2022-09-28T08:39:26.564Z,54.3974609375
2022-09-28T08:40:26.212Z,52.9873046875
2022-09-28T08:41:26.192Z,52.568359375
2022-09-28T08:42:26.255Z,51.9814453125
2022-09-28T08:43:26.182Z,53.09375
2022-09-28T08:44:26.564Z,53.2158203125
2022-09-28T08:45:29.158Z,53.6748046875
2022-09-28T08:46:27.222Z,54.3212890625
2022-09-28T08:47:26.327Z,54.39453125
2022-09-28T08:48:26.145Z,53.123046875
2022-09-28T08:49:26.766Z,53.3173828125
2022-09-28T08:50:26.203Z,53.3740234375
2022-09-28T08:51:26.241Z,53.7998046875
2022-09-28T08:52:26.262Z,54.650390625
2022-09-28T08:53:26.353Z,55.162109375
2022-09-28T08:54:26.489Z,55.501953125
2022-09-28T08:55:26.285Z,54.802734375
2022-09-28T08:56:29.274Z,55.751953125
2022-09-28T08:57:26.259Z,56.0927734375
2022-09-28T08:58:26.123Z,55.45703125
2022-09-28T08:59:26.235Z,55.833984375
2022-09-28T09:00:26.198Z,55.626953125
2022-09-28T09:01:26.271Z,55.2880859375
2022-09-28T09:02:26.242Z,56.060546875
2022-09-28T09:03:26.225Z,56.53515625
2022-09-28T09:04:26.488Z,57.1025390625
2022-09-28T09:05:26.300Z,58.2099609375
2022-09-28T09:06:26.260Z,58.712890625
2022-09-28T09:07:29.253Z,58.2041015625
2022-09-28T09:08:26.216Z,58.1103515625
2022-09-28T09:09:26.562Z,57.9677734375
2022-09-28T09:10:26.214Z,57.46484375
2022-09-28T09:11:26.110Z,55.904296875
2022-09-28T09:12:26.227Z,56.5595703125
2022-09-28T09:13:26.227Z,56.552734375
2022-09-28T09:14:26.591Z,56.8603515625
2022-09-28T09:15:26.364Z,57.7744140625
2022-09-28T09:16:26.313Z,58.779296875
2022-09-28T09:17:26.119Z,59.0673828125
2022-09-28T09:18:29.199Z,59.166015625
2022-09-28T09:19:26.592Z,59.779296875
2022-09-28T09:20:26.224Z,60.9345703125
2022-09-28T09:21:26.323Z,61.361328125
2022-09-28T09:22:26.123Z,61.6064453125
2022-09-28T09:23:26.267Z,60.642578125
2022-09-28T09:24:26.512Z,59.763671875
2022-09-28T09:25:26.259Z,59.4521484375
2022-09-28T09:26:26.416Z,58.2705078125
2022-09-28T09:27:26.143Z,57.4833984375
2022-09-28T09:28:26.238Z,55.3662109375
2022-09-28T09:29:29.534Z,56.3056640625
2022-09-28T09:30:29.091Z,57.5126953125
2022-09-28T09:31:26.149Z,58.166015625
2022-09-28T09:32:26.174Z,58.2236328125
2022-09-28T09:33:26.211Z,57.3369140625
2022-09-28T09:34:26.491Z,56.9453125
2022-09-28T09:35:29.442Z,56.3828125
2022-09-28T09:36:26.135Z,56.0712890625
2022-09-28T09:37:26.248Z,55.0732421875
2022-09-28T09:38:26.214Z,54.5322265625
2022-09-28T09:39:26.564Z,54.107421875
2022-09-28T09:40:29.234Z,53.4775390625
2022-09-28T09:41:26.293Z,53.337890625
2022-09-28T09:42:26.192Z,53.2802734375
2022-09-28T09:43:29.371Z,52.26171875
2022-09-28T09:44:26.567Z,51.6328125
2022-09-28T09:45:26.341Z,51.15234375
2022-09-28T09:46:26.292Z,50.353515625
2022-09-28T09:47:26.131Z,49.4296875
2022-09-28T09:48:26.252Z,48.84375
2022-09-28T09:49:26.492Z,49.294921875
2022-09-28T09:50:26.325Z,48.302734375
2022-09-28T09:51:29.186Z,47.6953125
2022-09-28T09:52:26.388Z,47.046875
2022-09-28T09:53:26.201Z,47.35546875
2022-09-28T09:54:26.569Z,47.7802734375
2022-09-28T09:55:29.988Z,47.4501953125
2022-09-28T09:56:26.139Z,47.685546875
2022-09-28T09:57:26.224Z,48.3876953125
2022-09-28T09:58:26.273Z,48.6298828125
2022-09-28T09:59:26.490Z,48.4755859375
2022-09-28T10:00:26.226Z,47.861328125
2022-09-28T10:01:26.191Z,47.916015625
2022-09-28T10:02:29.204Z,48.8642578125
2022-09-28T10:03:26.194Z,48.6240234375
2022-09-28T10:04:26.598Z,50.0419921875
2022-09-28T10:05:26.334Z,49.9287109375
2022-09-28T10:06:26.219Z,50.4716796875
2022-09-28T10:07:26.275Z,49.7421875
2022-09-28T10:08:26.134Z,50.2724609375
2022-09-28T10:09:26.142Z,50.1220703125
2022-09-28T10:10:26.569Z,50.21875
2022-09-28T10:11:26.208Z,50.4326171875
2022-09-28T10:12:26.258Z,49.724609375
2022-09-28T10:13:29.272Z,49.853515625
2022-09-28T10:14:26.498Z,49.9853515625
2022-09-28T10:15:26.319Z,50.23828125
2022-09-28T10:16:26.391Z,50.4873046875
2022-09-28T10:17:26.249Z,50.8115234375
2022-09-28T10:18:26.241Z,49.9033203125
2022-09-28T10:19:26.505Z,49.3544921875
2022-09-28T10:20:26.279Z,49.4638671875
2022-09-28T10:21:26.342Z,49.423828125
2022-09-28T10:22:26.330Z,49.939453125
2022-09-28T10:23:26.327Z,49.169921875
2022-09-28T10:24:32.177Z,49.0068359375
2022-09-28T10:25:26.240Z,49.1982421875
2022-09-28T10:26:26.126Z,48.8369140625
2022-09-28T10:27:26.117Z,48.84765625
2022-09-28T10:28:26.141Z,49.15234375
2022-09-28T10:29:26.568Z,49.453125
2022-09-28T10:30:26.245Z,48.7021484375
2022-09-28T10:31:26.231Z,49.4169921875
2022-09-28T10:32:26.254Z,49.267578125
2022-09-28T10:33:26.277Z,49.7333984375
2022-09-28T10:34:26.492Z,50.25390625
2022-09-28T10:35:29.229Z,50.17578125
2022-09-28T10:36:26.301Z,50.37890625
2022-09-28T10:37:26.202Z,50.2314453125
2022-09-28T10:38:26.198Z,50.1591796875
2022-09-28T10:39:26.566Z,49.8544921875
2022-09-28T10:40:26.345Z,49.32421875
2022-09-28T10:41:26.126Z,48.833984375
2022-09-28T10:42:26.272Z,48.099609375
2022-09-28T10:43:26.268Z,47.2421875
2022-09-28T10:44:26.568Z,47.5068359375
2022-09-28T10:45:26.206Z,48.0283203125
2022-09-28T10:46:29.221Z,48.583984375
2022-09-28T10:47:26.327Z,47.982421875
2022-09-28T10:48:26.118Z,48.6591796875
2022-09-28T10:49:26.574Z,49.6025390625
2022-09-28T10:50:26.206Z,50.5390625
2022-09-28T10:51:26.122Z,51.1474609375
2022-09-28T10:52:26.125Z,51.2392578125
2022-09-28T10:53:26.133Z,51.90625
2022-09-28T10:54:26.216Z,51.5947265625
2022-09-28T10:55:26.180Z,50.751953125
2022-09-28T10:56:26.215Z,50.611328125
2022-09-28T10:57:29.273Z,50.6328125
2022-09-28T10:58:26.184Z,49.388671875
2022-09-28T10:59:26.557Z,46.8974609375
2022-09-28T11:00:26.213Z,45.1123046875
2022-09-28T11:01:26.166Z,43.9892578125
2022-09-28T11:02:26.283Z,43.3408203125
2022-09-28T11:03:26.174Z,42.568359375
2022-09-28T11:04:26.572Z,41.017578125
2022-09-28T11:05:26.325Z,40.91015625
2022-09-28T11:06:26.319Z,42.7255859375
2022-09-28T11:07:26.129Z,43.5126953125
2022-09-28T11:08:29.310Z,44.2138671875
2022-09-28T11:09:29.795Z,44.609375
2022-09-28T11:10:26.325Z,45.3896484375
2022-09-28T11:11:26.113Z,45.9296875
2022-09-28T11:12:26.136Z,45.6767578125
2022-09-28T11:13:26.268Z,46.0283203125
2022-09-28T11:14:26.492Z,46.1669921875
2022-09-28T11:15:26.236Z,46.5244140625
2022-09-28T11:16:26.350Z,46.9228515625
2022-09-28T11:17:26.213Z,46.9521484375
2022-09-28T11:18:26.273Z,47.548828125
2022-09-28T11:19:32.145Z,47.2314453125
2022-09-28T11:20:28.204Z,47.2880859375
2022-09-28T11:21:26.265Z,47.4287109375
2022-09-28T11:22:26.304Z,46.5302734375
2022-09-28T11:23:26.130Z,46.107421875
2022-09-28T11:24:26.865Z,45.3037109375
2022-09-28T11:25:26.248Z,45.228515625
2022-09-28T11:26:26.158Z,45.833984375
2022-09-28T11:27:26.134Z,45.68359375
2022-09-28T11:28:26.224Z,46.1337890625
2022-09-28T11:29:26.567Z,46.162109375
2022-09-28T11:30:29.238Z,46.150390625
2022-09-28T11:31:26.273Z,46.4990234375
2022-09-28T11:32:26.133Z,46.5771484375
2022-09-28T11:33:26.134Z,45.859375
2022-09-28T11:34:41.550Z,45.9140625
2022-09-28T11:35:26.189Z,46.7041015625
2022-09-28T11:36:26.134Z,46.529296875
2022-09-28T11:37:26.135Z,46.552734375
2022-09-28T11:38:26.119Z,46.6298828125
2022-09-28T11:39:26.560Z,46.1025390625
2022-09-28T11:40:26.315Z,46.21875
2022-09-28T11:41:29.413Z,46.1748046875
2022-09-28T11:42:26.323Z,45.861328125
2022-09-28T11:43:26.307Z,45.185546875
2022-09-28T11:44:29.507Z,45.578125
2022-09-28T11:45:26.316Z,44.732421875
2022-09-28T11:46:26.260Z,44.2314453125
2022-09-28T11:47:26.258Z,44.37109375
2022-09-28T11:48:26.218Z,44.3095703125
2022-09-28T11:49:26.487Z,43.890625
2022-09-28T11:50:26.277Z,43.791015625
2022-09-28T11:51:26.262Z,43.5458984375
2022-09-28T11:52:29.253Z,43.6240234375
2022-09-28T11:53:26.321Z,43.6787109375
2022-09-28T11:54:26.247Z,43.6376953125
2022-09-28T11:55:26.172Z,43.35546875
2022-09-28T11:56:26.148Z,43.25
2022-09-28T11:57:26.140Z,43.1962890625
2022-09-28T11:58:26.195Z,43.0595703125
2022-09-28T11:59:26.570Z,43.36328125
2022-09-28T12:00:26.340Z,43.884765625
2022-09-28T12:01:26.225Z,43.9072265625
2022-09-28T12:02:26.247Z,43.5234375
2022-09-28T12:03:29.419Z,42.7646484375
2022-09-28T12:04:26.554Z,42.625
2022-09-28T12:05:26.339Z,42.654296875
2022-09-28T12:06:26.286Z,42.8994140625
2022-09-28T12:07:26.222Z,43.228515625
2022-09-28T12:08:26.272Z,43.57421875
2022-09-28T12:09:26.486Z,43.9130859375
2022-09-28T12:10:26.149Z,44.630859375
2022-09-28T12:11:26.120Z,44.6416015625
2022-09-28T12:12:26.188Z,45.4462890625
2022-09-28T12:13:26.309Z,45.7158203125
2022-09-28T12:14:32.212Z,45.79296875
2022-09-28T12:15:26.224Z,45.7421875
2022-09-28T12:16:45.678Z,45.4658203125
2022-09-28T12:17:26.200Z,45.5869140625
2022-09-28T12:18:26.102Z,45.9580078125
2022-09-28T12:19:26.568Z,45.619140625
2022-09-28T12:20:26.117Z,46.6123046875
2022-09-28T12:21:26.200Z,46.9130859375
2022-09-28T12:22:26.212Z,46.88671875
2022-09-28T12:23:26.201Z,47.37109375
2022-09-28T12:24:26.566Z,47.341796875
2022-09-28T12:25:29.239Z,47.447265625
2022-09-28T12:26:26.341Z,47.8955078125
2022-09-28T12:27:26.245Z,48.4228515625
2022-09-28T12:28:26.289Z,48.3564453125
2022-09-28T12:29:26.491Z,48.513671875
2022-09-28T12:30:26.209Z,48.2880859375
2022-09-28T12:31:26.173Z,48.076171875
2022-09-28T12:32:26.286Z,47.6689453125
2022-09-28T12:33:26.313Z,47.9287109375
2022-09-28T12:34:26.565Z,48.1513671875
2022-09-28T12:35:26.301Z,47.8466796875
2022-09-28T12:36:29.257Z,48.2001953125
2022-09-28T12:37:26.349Z,48.333984375